createdAt,value
2022-08-22T00:00:10.978Z,50.27
2022-08-22T00:00:34.412Z,50.38
2022-08-22T00:00:55.640Z,50.36
2022-08-22T00:01:16.687Z,50.38
2022-08-22T00:01:37.740Z,50.47
2022-08-22T00:01:59.644Z,50.47
2022-08-22T00:02:20.689Z,50.49
2022-08-22T00:02:52.694Z,37.90
2022-08-22T00:02:53.437Z,41.09
2022-08-22T00:02:55.494Z,49.16
2022-08-22T00:02:56.170Z,42.94
2022-08-22T00:02:58.169Z,37.95
2022-08-22T00:03:00.351Z,45.34
2022-08-22T00:03:00.776Z,37.19
2022-08-22T00:03:04.493Z,42.98
2022-08-22T00:03:04.985Z,43.10
2022-08-22T00:03:07.175Z,45.55
2022-08-22T00:03:10.106Z,45.96
2022-08-22T00:03:11.074Z,46.62
2022-08-22T00:03:15.165Z,48.52
2022-08-22T00:03:15.477Z,48.76
2022-08-22T00:03:16.196Z,50.59
2022-08-22T00:03:17.693Z,50.80
2022-08-22T00:03:35.673Z,50.93
2022-08-22T00:03:56.837Z,50.97
2022-08-22T00:04:17.879Z,51.06
2022-08-22T00:04:38.945Z,51.04
2022-08-22T00:04:59.999Z,50.89
2022-08-22T00:05:21.059Z,50.90
2022-08-22T00:05:42.096Z,50.89
2022-08-22T00:06:04.560Z,50.76
2022-08-22T00:06:25.614Z,50.70
2022-08-22T00:06:46.657Z,50.67
2022-08-22T00:07:07.707Z,50.66
2022-08-22T00:07:28.764Z,50.63
2022-08-22T00:07:49.820Z,50.55
2022-08-22T00:08:10.873Z,50.54
2022-08-22T00:08:31.925Z,50.48
2022-08-22T00:08:52.984Z,50.53
2022-08-22T00:09:14.042Z,50.68
2022-08-22T00:09:35.108Z,50.81
2022-08-22T00:09:56.264Z,50.80
2022-08-22T00:10:23.592Z,50.78
2022-08-22T00:10:44.289Z,50.81
2022-08-22T00:11:05.348Z,50.95
2022-08-22T00:11:26.397Z,51.07
2022-08-22T00:11:47.444Z,51.05
2022-08-22T00:12:08.498Z,51.01
2022-08-22T00:12:29.546Z,50.93
2022-08-22T00:12:50.597Z,50.98
2022-08-22T00:13:11.643Z,51.07
2022-08-22T00:13:32.704Z,51.08
2022-08-22T00:14:01.391Z,51.06
2022-08-22T00:14:20.727Z,51.14
2022-08-22T00:14:41.778Z,51.12
2022-08-22T00:15:02.945Z,51.10
2022-08-22T00:15:42.005Z,51.10
2022-08-22T00:15:50.955Z,51.20
2022-08-22T00:16:12.011Z,51.22
2022-08-22T00:16:33.068Z,51.28
2022-08-22T00:16:54.111Z,51.42
2022-08-22T00:17:15.168Z,51.43
2022-08-22T00:17:36.226Z,51.33
2022-08-22T00:17:57.355Z,51.44
2022-08-22T00:18:18.451Z,51.45
2022-08-22T00:18:39.517Z,51.32
2022-08-22T00:19:00.575Z,51.43
2022-08-22T00:19:21.650Z,51.28
2022-08-22T00:19:42.717Z,51.17
2022-08-22T00:20:03.873Z,51.17
2022-08-22T00:20:28.122Z,51.17
2022-08-22T00:20:49.472Z,51.18
2022-08-22T00:21:10.515Z,51.22
2022-08-22T00:21:31.565Z,51.28
2022-08-22T00:21:52.622Z,51.37
2022-08-22T00:22:13.664Z,51.29
2022-08-22T00:22:34.721Z,51.29
2022-08-22T00:22:55.774Z,51.32
2022-08-22T00:23:16.821Z,51.40
2022-08-22T00:23:37.880Z,51.33
2022-08-22T00:23:58.928Z,51.24
2022-08-22T00:24:21.548Z,51.15
2022-08-22T00:24:42.594Z,51.02
2022-08-22T00:25:03.775Z,51.08
2022-08-22T00:25:26.111Z,51.03
2022-08-22T00:25:47.344Z,51.09
2022-08-22T00:26:08.395Z,51.20
2022-08-22T00:26:29.453Z,51.19
2022-08-22T00:26:50.503Z,51.16
2022-08-22T00:27:11.549Z,51.16
2022-08-22T00:27:32.603Z,51.20
2022-08-22T00:27:53.665Z,51.21
2022-08-22T00:28:14.709Z,51.11
2022-08-22T00:28:35.760Z,51.06
2022-08-22T00:28:56.809Z,51.16
2022-08-22T00:29:17.861Z,51.31
2022-08-22T00:29:39.253Z,51.36
2022-08-22T00:30:00.691Z,51.31
2022-08-22T00:30:24.283Z,51.29
2022-08-22T00:30:45.330Z,51.23
2022-08-22T00:31:06.389Z,51.24
2022-08-22T00:31:27.423Z,51.23
2022-08-22T00:31:48.473Z,51.43
2022-08-22T00:32:10.321Z,51.60
2022-08-22T00:32:32.111Z,51.67
2022-08-22T00:32:53.171Z,51.56
2022-08-22T00:33:14.217Z,51.51
2022-08-22T00:33:35.266Z,51.44
2022-08-22T00:33:56.315Z,51.47
2022-08-22T00:34:17.369Z,51.42
2022-08-22T00:34:38.416Z,51.38
2022-08-22T00:34:59.472Z,51.31
2022-08-22T00:35:20.525Z,51.45
2022-08-22T00:35:44.973Z,51.49
2022-08-22T00:36:06.298Z,51.49
2022-08-22T00:36:27.347Z,51.52
2022-08-22T00:36:48.404Z,51.61
2022-08-22T00:37:09.453Z,51.60
2022-08-22T00:37:30.499Z,51.58
2022-08-22T00:37:51.635Z,51.68
2022-08-22T00:38:12.679Z,51.57
2022-08-22T00:38:33.729Z,51.55
2022-08-22T00:38:54.772Z,51.47
2022-08-22T00:39:15.826Z,51.41
2022-08-22T00:39:36.958Z,51.40
2022-08-22T00:39:58.070Z,51.46
2022-08-22T00:40:19.371Z,51.50
2022-08-22T00:40:40.412Z,51.56
2022-08-22T00:41:01.469Z,51.64
2022-08-22T00:41:22.523Z,51.71
2022-08-22T00:41:43.572Z,51.75
2022-08-22T00:42:04.629Z,51.71
2022-08-22T00:42:31.861Z,51.83
2022-08-22T00:42:52.638Z,51.89
2022-08-22T00:43:13.688Z,51.91
2022-08-22T00:43:34.739Z,52.00
2022-08-22T00:43:55.794Z,52.15
2022-08-22T00:44:16.842Z,52.13
2022-08-22T00:44:37.891Z,52.16
2022-08-22T00:44:58.938Z,52.01
2022-08-22T00:45:20.013Z,51.94
2022-08-22T00:45:41.073Z,52.02
2022-08-22T00:46:02.125Z,52.04
2022-08-22T00:46:23.170Z,52.08
2022-08-22T00:46:44.221Z,51.98
2022-08-22T00:47:05.277Z,52.00
2022-08-22T00:47:26.327Z,51.98
2022-08-22T00:47:47.384Z,51.99
2022-08-22T00:48:08.437Z,51.99
2022-08-22T00:48:29.492Z,51.97
2022-08-22T00:48:50.534Z,51.97
2022-08-22T00:49:11.589Z,52.03
2022-08-22T00:49:32.638Z,52.07
2022-08-22T00:49:53.690Z,52.08
2022-08-22T00:50:14.738Z,52.15
2022-08-22T00:50:35.811Z,52.26
2022-08-22T00:50:56.869Z,52.32
2022-08-22T00:51:17.907Z,52.44
2022-08-22T00:51:38.964Z,52.35
2022-08-22T00:52:00.013Z,52.26
2022-08-22T00:52:21.062Z,52.23
2022-08-22T00:52:42.115Z,52.21
2022-08-22T00:53:03.167Z,52.11
2022-08-22T00:53:24.224Z,52.07
2022-08-22T00:53:45.283Z,52.02
2022-08-22T00:54:06.796Z,52.23
2022-08-22T00:54:33.304Z,52.61
2022-08-22T00:54:54.353Z,52.65
2022-08-22T00:55:15.404Z,52.52
2022-08-22T00:55:36.567Z,52.42
2022-08-22T00:55:57.618Z,52.34
2022-08-22T00:56:18.670Z,52.29
2022-08-22T00:56:39.714Z,52.21
2022-08-22T00:57:00.762Z,52.27
2022-08-22T00:57:21.810Z,52.25
2022-08-22T00:57:42.864Z,52.16
2022-08-22T00:58:03.913Z,52.12
2022-08-22T00:58:24.972Z,52.15
2022-08-22T00:58:46.019Z,52.32
2022-08-22T00:59:18.033Z,52.50
2022-08-22T00:59:34.040Z,52.50
2022-08-22T00:59:55.089Z,52.47
2022-08-22T01:00:16.141Z,52.49
2022-08-22T01:00:37.207Z,52.40
2022-08-22T01:00:58.312Z,52.37
2022-08-22T01:01:19.398Z,52.28
2022-08-22T01:01:40.481Z,52.24
2022-08-22T01:02:01.514Z,52.16
2022-08-22T01:02:22.561Z,52.13
2022-08-22T01:02:43.612Z,52.27
2022-08-22T01:03:04.663Z,52.42
2022-08-22T01:03:25.712Z,52.49
2022-08-22T01:03:46.761Z,52.54
2022-08-22T01:04:07.816Z,52.51
2022-08-22T01:04:28.862Z,52.43
2022-08-22T01:04:49.912Z,52.32
2022-08-22T01:05:10.974Z,52.32
2022-08-22T01:05:32.011Z,52.33
2022-08-22T01:05:53.081Z,52.33
2022-08-22T01:06:14.129Z,52.26
2022-08-22T01:06:35.478Z,52.32
2022-08-22T01:06:56.512Z,52.32
2022-08-22T01:07:17.566Z,52.28
2022-08-22T01:07:38.640Z,52.38
2022-08-22T01:07:59.873Z,52.56
2022-08-22T01:08:20.960Z,52.69
2022-08-22T01:08:42.007Z,52.76
2022-08-22T01:09:03.053Z,52.76
2022-08-22T01:09:24.101Z,52.67
2022-08-22T01:09:45.155Z,52.65
2022-08-22T01:10:06.214Z,52.62
2022-08-22T01:10:27.253Z,52.51
2022-08-22T01:10:48.302Z,52.47
2022-08-22T01:11:09.475Z,52.41
2022-08-22T01:11:30.528Z,52.41
2022-08-22T01:11:51.574Z,52.49
2022-08-22T01:12:12.643Z,52.48
2022-08-22T01:12:33.682Z,52.40
2022-08-22T01:12:54.733Z,52.38
2022-08-22T01:13:15.795Z,52.32
2022-08-22T01:13:36.848Z,52.19
2022-08-22T01:13:57.902Z,52.12
2022-08-22T01:14:18.954Z,52.15
2022-08-22T01:14:40.005Z,52.20
2022-08-22T01:15:01.063Z,52.26
2022-08-22T01:15:22.110Z,52.31
2022-08-22T01:15:43.166Z,52.62
2022-08-22T01:16:04.228Z,52.60
2022-08-22T01:16:25.385Z,52.41
2022-08-22T01:16:46.435Z,52.30
2022-08-22T01:17:07.841Z,52.27
2022-08-22T01:17:28.898Z,52.22
2022-08-22T01:17:49.941Z,52.20
2022-08-22T01:18:11.000Z,52.24
2022-08-22T01:18:32.044Z,52.34
2022-08-22T01:18:53.098Z,52.42
2022-08-22T01:19:14.155Z,52.48
2022-08-22T01:19:35.188Z,52.45
2022-08-22T01:19:56.239Z,52.38
2022-08-22T01:20:17.294Z,52.26
2022-08-22T01:20:38.346Z,52.28
2022-08-22T01:20:59.395Z,52.22
2022-08-22T01:21:24.103Z,52.32
2022-08-22T01:21:45.430Z,52.33
2022-08-22T01:22:06.475Z,52.31
2022-08-22T01:22:27.529Z,52.42
2022-08-22T01:22:48.578Z,52.61
2022-08-22T01:23:09.629Z,52.76
2022-08-22T01:23:30.682Z,52.91
2022-08-22T01:23:51.737Z,53.04
2022-08-22T01:24:12.783Z,53.06
2022-08-22T01:24:33.837Z,52.92
2022-08-22T01:24:54.893Z,52.86
2022-08-22T01:25:15.958Z,52.83
2022-08-22T01:25:38.920Z,52.73
2022-08-22T01:25:59.971Z,52.64
2022-08-22T01:26:21.283Z,52.60
2022-08-22T01:26:44.055Z,52.68
2022-08-22T01:27:05.858Z,52.78
2022-08-22T01:27:27.198Z,52.91
2022-08-22T01:27:48.574Z,53.06
2022-08-22T01:28:11.205Z,53.03
2022-08-22T01:28:32.263Z,52.89
2022-08-22T01:28:53.902Z,52.77
2022-08-22T01:29:15.018Z,52.77
2022-08-22T01:29:36.073Z,52.86
2022-08-22T01:29:59.000Z,52.91
2022-08-22T01:30:20.455Z,52.84
2022-08-22T01:30:44.365Z,53.05
2022-08-22T01:31:05.416Z,53.10
2022-08-22T01:31:26.476Z,53.11
2022-08-22T01:31:47.544Z,53.22
2022-08-22T01:32:08.595Z,53.40
2022-08-22T01:32:29.649Z,53.37
2022-08-22T01:32:50.698Z,53.30
2022-08-22T01:33:17.661Z,53.30
2022-08-22T01:33:38.713Z,53.27
2022-08-22T01:33:59.767Z,53.30
2022-08-22T01:34:20.802Z,53.32
2022-08-22T01:34:41.855Z,53.36
2022-08-22T01:35:02.960Z,53.35
2022-08-22T01:35:23.964Z,53.25
2022-08-22T01:35:45.017Z,53.27
2022-08-22T01:36:06.070Z,53.20
2022-08-22T01:36:27.117Z,53.11
2022-08-22T01:36:48.250Z,53.06
2022-08-22T01:37:09.306Z,53.01
2022-08-22T01:37:30.355Z,52.95
2022-08-22T01:37:51.402Z,52.94
2022-08-22T01:38:12.458Z,52.91
2022-08-22T01:38:33.510Z,52.88
2022-08-22T01:38:54.568Z,52.85
2022-08-22T01:39:15.620Z,52.86
2022-08-22T01:39:36.797Z,52.86
2022-08-22T01:39:57.892Z,52.87
2022-08-22T01:40:18.944Z,52.87
2022-08-22T01:40:54.074Z,52.90
2022-08-22T01:41:07.735Z,52.88
2022-08-22T01:41:31.917Z,52.86
2022-08-22T01:41:52.984Z,52.78
2022-08-22T01:42:15.179Z,52.80
2022-08-22T01:42:36.362Z,52.77
2022-08-22T01:42:57.417Z,52.75
2022-08-22T01:43:18.464Z,52.78
2022-08-22T01:43:59.282Z,52.73
2022-08-22T01:44:06.478Z,52.71
2022-08-22T01:44:27.527Z,52.68
2022-08-22T01:44:48.586Z,52.65
2022-08-22T01:45:09.638Z,52.62
2022-08-22T01:45:30.694Z,52.65
2022-08-22T01:45:51.736Z,52.62
2022-08-22T01:46:12.786Z,52.64
2022-08-22T01:46:39.751Z,52.69
2022-08-22T01:47:00.820Z,52.71
2022-08-22T01:47:21.864Z,52.73
2022-08-22T01:47:42.932Z,52.73
2022-08-22T01:48:03.975Z,52.82
2022-08-22T01:48:25.034Z,52.86
2022-08-22T01:48:46.084Z,52.79
2022-08-22T01:49:08.818Z,52.76
2022-08-22T01:49:29.866Z,52.76
2022-08-22T01:49:50.920Z,52.85
2022-08-22T01:50:11.971Z,52.88
2022-08-22T01:50:33.020Z,52.90
2022-08-22T01:50:54.070Z,52.87
2022-08-22T01:51:15.119Z,52.75
2022-08-22T01:51:36.167Z,52.71
2022-08-22T01:51:57.223Z,52.62
2022-08-22T01:52:18.760Z,52.73
2022-08-22T01:52:40.679Z,52.78
2022-08-22T01:53:01.737Z,53.04
2022-08-22T01:53:22.791Z,53.24
2022-08-22T01:53:43.844Z,53.30
2022-08-22T01:54:04.890Z,53.24
2022-08-22T01:54:25.962Z,53.18
2022-08-22T01:54:47.004Z,53.21
2022-08-22T01:55:08.050Z,53.22
2022-08-22T01:55:29.100Z,53.35
2022-08-22T01:55:50.145Z,53.43
2022-08-22T01:56:11.203Z,53.49
2022-08-22T01:56:32.246Z,53.44
2022-08-22T01:56:53.296Z,53.37
2022-08-22T01:57:14.352Z,53.30
2022-08-22T01:57:35.510Z,53.27
2022-08-22T01:57:56.675Z,53.19
2022-08-22T01:58:20.036Z,53.05
2022-08-22T01:58:41.091Z,53.03
2022-08-22T01:59:02.141Z,53.05
2022-08-22T01:59:23.186Z,53.03
2022-08-22T01:59:50.153Z,53.02
2022-08-22T02:00:11.211Z,53.08
2022-08-22T02:00:35.251Z,53.06
2022-08-22T02:00:56.607Z,52.98
2022-08-22T02:01:17.674Z,52.97
2022-08-22T02:01:38.720Z,52.92
2022-08-22T02:01:59.767Z,52.86
2022-08-22T02:02:20.823Z,52.89
2022-08-22T02:02:41.889Z,52.90
2022-08-22T02:03:02.938Z,52.87
2022-08-22T02:03:24.003Z,52.88
2022-08-22T02:03:45.047Z,52.84
2022-08-22T02:04:06.100Z,52.83
2022-08-22T02:04:27.153Z,52.81
2022-08-22T02:04:48.200Z,52.87
2022-08-22T02:05:09.255Z,52.94
2022-08-22T02:05:30.305Z,52.95
2022-08-22T02:05:51.361Z,52.93
2022-08-22T02:06:14.497Z,52.92
2022-08-22T02:06:35.750Z,52.95
2022-08-22T02:06:56.803Z,52.91
2022-08-22T02:07:17.851Z,52.84
2022-08-22T02:07:38.893Z,52.81
2022-08-22T02:08:00.252Z,52.87
2022-08-22T02:08:21.428Z,52.91
2022-08-22T02:08:42.483Z,52.87
2022-08-22T02:09:03.546Z,52.89
2022-08-22T02:09:24.605Z,52.88
2022-08-22T02:09:45.653Z,52.91
2022-08-22T02:10:07.183Z,52.93
2022-08-22T02:10:28.234Z,52.94
2022-08-22T02:10:49.286Z,53.06
2022-08-22T02:11:10.347Z,53.07
2022-08-22T02:11:31.388Z,53.04
2022-08-22T02:11:52.432Z,52.98
2022-08-22T02:12:13.880Z,52.97
2022-08-22T02:12:40.443Z,53.03
2022-08-22T02:13:01.609Z,53.15
2022-08-22T02:13:22.653Z,53.06
2022-08-22T02:13:43.705Z,53.01
2022-08-22T02:14:04.753Z,53.00
2022-08-22T02:14:25.804Z,52.97
2022-08-22T02:14:46.860Z,53.00
2022-08-22T02:15:07.907Z,52.99
2022-08-22T02:15:28.956Z,52.98
2022-08-22T02:15:50.009Z,52.98
2022-08-22T02:16:11.052Z,52.95
2022-08-22T02:16:32.116Z,52.93
2022-08-22T02:16:53.156Z,52.98
2022-08-22T02:17:14.211Z,53.09
2022-08-22T02:17:35.265Z,53.17
2022-08-22T02:17:56.351Z,53.25
2022-08-22T02:18:22.283Z,53.41
2022-08-22T02:18:43.333Z,53.54
2022-08-22T02:19:04.384Z,53.72
2022-08-22T02:19:25.434Z,53.83
2022-08-22T02:19:46.480Z,53.77
2022-08-22T02:20:07.548Z,53.71
2022-08-22T02:20:28.614Z,53.60
2022-08-22T02:20:49.657Z,53.49
2022-08-22T02:21:10.703Z,53.38
2022-08-22T02:21:31.754Z,53.34
2022-08-22T02:21:52.805Z,53.40
2022-08-22T02:22:15.326Z,53.56
2022-08-22T02:22:36.387Z,53.47
2022-08-22T02:23:03.348Z,53.43
2022-08-22T02:23:24.412Z,53.39
2022-08-22T02:23:45.463Z,53.50
2022-08-22T02:24:06.510Z,53.52
2022-08-22T02:24:27.564Z,53.45
2022-08-22T02:24:48.610Z,53.49
2022-08-22T02:25:09.657Z,53.59
2022-08-22T02:25:30.706Z,53.69
2022-08-22T02:25:51.755Z,53.82
2022-08-22T02:26:12.806Z,53.78
2022-08-22T02:26:33.859Z,53.79
2022-08-22T02:26:54.899Z,53.74
2022-08-22T02:27:15.945Z,53.69
2022-08-22T02:27:36.994Z,53.64
2022-08-22T02:27:58.251Z,53.67
2022-08-22T02:28:19.378Z,53.67
2022-08-22T02:28:41.101Z,53.64
2022-08-22T02:29:07.406Z,53.66
2022-08-22T02:29:28.469Z,53.63
2022-08-22T02:29:49.518Z,53.54
2022-08-22T02:30:10.569Z,53.59
2022-08-22T02:30:31.614Z,53.61
2022-08-22T02:30:52.666Z,53.62
2022-08-22T02:31:16.818Z,53.71
2022-08-22T02:31:38.009Z,53.95
2022-08-22T02:31:59.056Z,54.01
2022-08-22T02:32:20.111Z,54.08
2022-08-22T02:32:41.164Z,54.06
2022-08-22T02:33:02.209Z,54.11
2022-08-22T02:33:23.377Z,54.25
2022-08-22T02:33:44.444Z,54.18
2022-08-22T02:34:05.507Z,54.11
2022-08-22T02:34:26.555Z,54.23
2022-08-22T02:34:47.605Z,54.37
2022-08-22T02:35:08.659Z,54.47
2022-08-22T02:35:29.708Z,54.56
2022-08-22T02:35:50.761Z,54.49
2022-08-22T02:36:11.820Z,54.42
2022-08-22T02:36:32.879Z,54.38
2022-08-22T02:36:53.919Z,54.41
2022-08-22T02:37:19.103Z,54.47
2022-08-22T02:37:40.153Z,54.46
2022-08-22T02:38:01.202Z,54.47
2022-08-22T02:38:22.250Z,54.50
2022-08-22T02:38:43.317Z,54.59
2022-08-22T02:39:04.379Z,54.70
2022-08-22T02:39:25.432Z,54.66
2022-08-22T02:39:46.494Z,54.63
2022-08-22T02:40:07.592Z,54.63
2022-08-22T02:40:28.625Z,54.45
2022-08-22T02:40:49.671Z,54.39
2022-08-22T02:41:10.723Z,54.52
2022-08-22T02:41:31.769Z,54.49
2022-08-22T02:41:52.824Z,54.54
2022-08-22T02:42:13.881Z,54.44
2022-08-22T02:42:34.930Z,54.46
2022-08-22T02:42:55.975Z,54.49
2022-08-22T02:43:17.028Z,54.42
2022-08-22T02:43:38.083Z,54.38
2022-08-22T02:43:59.247Z,54.44
2022-08-22T02:44:20.294Z,54.47
2022-08-22T02:44:41.360Z,54.39
2022-08-22T02:45:02.405Z,54.41
2022-08-22T02:45:23.457Z,54.51
2022-08-22T02:45:44.502Z,54.55
2022-08-22T02:46:05.556Z,54.65
2022-08-22T02:46:28.514Z,54.66
2022-08-22T02:46:49.554Z,54.77
2022-08-22T02:47:10.612Z,54.86
2022-08-22T02:47:31.648Z,54.93
2022-08-22T02:47:52.747Z,54.93
2022-08-22T02:48:13.784Z,54.85
2022-08-22T02:48:34.835Z,54.78
2022-08-22T02:48:55.881Z,54.68
2022-08-22T02:49:16.931Z,54.60
2022-08-22T02:49:44.023Z,54.66
2022-08-22T02:50:05.052Z,54.69
2022-08-22T02:50:26.107Z,54.59
2022-08-22T02:50:47.157Z,54.54
2022-08-22T02:51:08.224Z,54.47
2022-08-22T02:51:29.293Z,54.37
2022-08-22T02:51:50.341Z,54.31
2022-08-22T02:52:11.396Z,54.34
2022-08-22T02:52:32.439Z,54.48
2022-08-22T02:52:53.488Z,54.58
2022-08-22T02:53:14.548Z,54.60
2022-08-22T02:53:35.597Z,54.61
2022-08-22T02:53:56.650Z,54.49
2022-08-22T02:54:17.703Z,54.51
2022-08-22T02:54:38.800Z,54.60
2022-08-22T02:54:59.844Z,54.63
2022-08-22T02:55:20.894Z,54.60
2022-08-22T02:55:41.941Z,54.72
2022-08-22T02:56:02.992Z,54.73
2022-08-22T02:56:24.036Z,54.77
2022-08-22T02:56:45.090Z,54.78
2022-08-22T02:57:06.133Z,54.82
2022-08-22T02:57:36.130Z,54.76
2022-08-22T02:58:00.278Z,54.70
2022-08-22T02:58:21.432Z,54.72
2022-08-22T02:58:42.484Z,54.82
2022-08-22T02:59:03.532Z,54.85
2022-08-22T02:59:24.588Z,54.84
2022-08-22T02:59:45.651Z,54.84
2022-08-22T03:00:06.698Z,54.96
2022-08-22T03:00:33.713Z,55.09
2022-08-22T03:00:54.807Z,54.99
2022-08-22T03:01:15.845Z,54.86
2022-08-22T03:01:36.875Z,54.83
2022-08-22T03:01:57.926Z,54.86
2022-08-22T03:02:18.976Z,54.87
2022-08-22T03:02:40.027Z,54.86
2022-08-22T03:03:01.075Z,54.77
2022-08-22T03:03:22.125Z,54.81
2022-08-22T03:03:43.175Z,54.77
2022-08-22T03:04:04.228Z,54.81
2022-08-22T03:04:25.272Z,54.85
2022-08-22T03:04:46.334Z,54.84
2022-08-22T03:05:07.387Z,54.73
2022-08-22T03:05:30.306Z,54.68
2022-08-22T03:05:51.351Z,54.55
2022-08-22T03:06:12.398Z,54.52
2022-08-22T03:06:33.446Z,54.42
2022-08-22T03:06:54.502Z,54.36
2022-08-22T03:07:15.561Z,54.36
2022-08-22T03:07:36.641Z,54.52
2022-08-22T03:07:57.941Z,54.61
2022-08-22T03:08:21.043Z,54.50
2022-08-22T03:08:42.816Z,54.47
2022-08-22T03:09:09.129Z,54.62
2022-08-22T03:09:30.184Z,54.61
2022-08-22T03:09:51.252Z,54.53
2022-08-22T03:10:12.306Z,54.50
2022-08-22T03:10:33.348Z,54.43
2022-08-22T03:10:54.508Z,54.36
2022-08-22T03:11:15.561Z,54.37
2022-08-22T03:11:36.613Z,54.29
2022-08-22T03:11:57.668Z,54.30
2022-08-22T03:12:18.709Z,54.34
2022-08-22T03:12:39.759Z,54.33
2022-08-22T03:13:00.805Z,54.32
2022-08-22T03:13:21.856Z,54.43
2022-08-22T03:13:44.364Z,54.63
2022-08-22T03:14:05.422Z,54.72
2022-08-22T03:14:26.471Z,54.74
2022-08-22T03:14:47.521Z,54.82
2022-08-22T03:15:08.590Z,54.87
2022-08-22T03:15:29.637Z,54.88
2022-08-22T03:15:50.690Z,54.88
2022-08-22T03:16:11.743Z,54.81
2022-08-22T03:16:32.790Z,54.85
2022-08-22T03:16:53.851Z,54.77
2022-08-22T03:17:14.900Z,54.84
2022-08-22T03:17:35.949Z,54.96
2022-08-22T03:17:57.005Z,54.90
2022-08-22T03:18:18.050Z,54.80
2022-08-22T03:18:39.096Z,54.85
2022-08-22T03:19:00.150Z,54.90
2022-08-22T03:19:21.199Z,54.87
2022-08-22T03:19:42.251Z,54.78
2022-08-22T03:20:03.300Z,54.83
2022-08-22T03:20:24.360Z,54.80
2022-08-22T03:20:46.537Z,54.85
2022-08-22T03:21:07.585Z,54.89
2022-08-22T03:21:28.731Z,55.07
2022-08-22T03:21:49.879Z,55.04
2022-08-22T03:22:10.929Z,54.96
2022-08-22T03:22:31.976Z,55.05
2022-08-22T03:22:53.029Z,54.96
2022-08-22T03:23:14.081Z,54.98
2022-08-22T03:23:35.131Z,54.97
2022-08-22T03:23:56.178Z,54.92
2022-08-22T03:24:17.230Z,54.88
2022-08-22T03:24:38.282Z,54.88
2022-08-22T03:24:59.331Z,54.78
2022-08-22T03:25:20.383Z,54.78
2022-08-22T03:25:41.430Z,54.87
2022-08-22T03:26:02.496Z,54.89
2022-08-22T03:26:29.475Z,54.94
2022-08-22T03:26:50.539Z,54.96
2022-08-22T03:27:11.591Z,55.01
2022-08-22T03:27:33.453Z,54.96
2022-08-22T03:27:54.476Z,55.03
2022-08-22T03:28:15.522Z,55.18
2022-08-22T03:28:36.576Z,55.21
2022-08-22T03:29:00.214Z,55.23
2022-08-22T03:29:21.402Z,55.31
2022-08-22T03:29:42.450Z,55.33
2022-08-22T03:30:03.504Z,55.41
2022-08-22T03:30:24.550Z,55.38
2022-08-22T03:30:45.600Z,55.34
2022-08-22T03:31:06.652Z,55.35
2022-08-22T03:31:27.698Z,55.29
2022-08-22T03:31:48.764Z,55.23
2022-08-22T03:32:09.831Z,55.23
2022-08-22T03:32:30.893Z,55.20
2022-08-22T03:32:51.953Z,55.25
2022-08-22T03:33:13.002Z,55.39
2022-08-22T03:33:34.044Z,55.63
2022-08-22T03:33:55.098Z,55.72
2022-08-22T03:34:16.154Z,55.69
2022-08-22T03:34:37.196Z,55.62
2022-08-22T03:34:58.244Z,55.63
2022-08-22T03:35:19.309Z,55.63
2022-08-22T03:35:40.354Z,55.60
2022-08-22T03:36:01.412Z,55.62
2022-08-22T03:36:22.461Z,55.74
2022-08-22T03:36:43.508Z,55.73
2022-08-22T03:37:06.713Z,55.69
2022-08-22T03:37:27.782Z,55.74
2022-08-22T03:37:48.844Z,55.97
2022-08-22T03:38:09.891Z,55.96
2022-08-22T03:38:30.939Z,55.93
2022-08-22T03:38:51.993Z,55.91
2022-08-22T03:39:17.291Z,55.78
2022-08-22T03:39:38.664Z,55.80
2022-08-22T03:39:59.775Z,55.79
2022-08-22T03:40:20.874Z,55.69
2022-08-22T03:40:41.886Z,55.71
2022-08-22T03:41:02.933Z,55.80
2022-08-22T03:41:23.976Z,55.96
2022-08-22T03:41:45.030Z,56.00
2022-08-22T03:42:06.077Z,56.03
2022-08-22T03:42:27.142Z,56.08
2022-08-22T03:42:48.190Z,56.06
2022-08-22T03:43:09.845Z,56.09
2022-08-22T03:43:30.899Z,56.06
2022-08-22T03:43:51.944Z,56.02
2022-08-22T03:44:13.000Z,55.98
2022-08-22T03:44:34.042Z,56.06
2022-08-22T03:44:55.090Z,56.17
2022-08-22T03:45:16.142Z,56.21
2022-08-22T03:45:37.189Z,56.17
2022-08-22T03:45:58.237Z,56.20
2022-08-22T03:46:19.286Z,56.23
2022-08-22T03:46:40.338Z,56.20
2022-08-22T03:47:01.382Z,56.17
2022-08-22T03:47:22.435Z,56.17
2022-08-22T03:47:43.507Z,56.26
2022-08-22T03:48:04.545Z,56.24
2022-08-22T03:48:25.605Z,56.27
2022-08-22T03:48:46.645Z,56.26
2022-08-22T03:49:07.694Z,56.28
2022-08-22T03:49:28.744Z,56.35
2022-08-22T03:49:49.796Z,56.39
2022-08-22T03:50:10.846Z,56.35
2022-08-22T03:50:31.896Z,56.37
2022-08-22T03:50:54.459Z,56.51
2022-08-22T03:51:15.672Z,56.64
2022-08-22T03:51:36.732Z,56.76
2022-08-22T03:51:57.770Z,56.90
2022-08-22T03:52:18.839Z,56.84
2022-08-22T03:52:39.889Z,56.73
2022-08-22T03:53:00.964Z,56.60
2022-08-22T03:53:22.014Z,56.54
2022-08-22T03:53:43.064Z,56.52
2022-08-22T03:54:04.116Z,56.44
2022-08-22T03:54:25.169Z,56.48
2022-08-22T03:54:52.137Z,56.57
2022-08-22T03:55:13.216Z,56.61
2022-08-22T03:55:34.273Z,56.65
2022-08-22T03:55:55.320Z,56.68
2022-08-22T03:56:16.371Z,56.65
2022-08-22T03:56:37.418Z,56.66
2022-08-22T03:57:00.678Z,56.57
2022-08-22T03:57:21.703Z,56.59
2022-08-22T03:57:42.742Z,56.57
2022-08-22T03:58:03.906Z,56.63
2022-08-22T03:58:27.992Z,56.72
2022-08-22T03:58:49.472Z,56.69
2022-08-22T03:59:10.526Z,56.75
2022-08-22T03:59:32.101Z,56.76
2022-08-22T03:59:53.147Z,56.70
2022-08-22T04:00:14.487Z,56.68
2022-08-22T04:00:35.537Z,56.71
2022-08-22T04:00:56.792Z,56.67
2022-08-22T04:01:17.995Z,56.64
2022-08-22T04:01:39.071Z,56.65
2022-08-22T04:02:00.115Z,56.66
2022-08-22T04:02:27.543Z,56.74
2022-08-22T04:02:48.128Z,56.79
2022-08-22T04:03:09.288Z,56.79
2022-08-22T04:03:30.337Z,56.70
2022-08-22T04:03:51.383Z,56.69
2022-08-22T04:04:14.443Z,56.76
2022-08-22T04:04:35.482Z,56.74
2022-08-22T04:04:56.941Z,56.75
2022-08-22T04:05:18.057Z,56.81
2022-08-22T04:05:40.980Z,56.94
2022-08-22T04:06:02.165Z,56.93
2022-08-22T04:06:23.213Z,56.90
2022-08-22T04:06:44.270Z,56.82
2022-08-22T04:07:15.842Z,56.77
2022-08-22T04:07:36.297Z,56.77
2022-08-22T04:07:58.754Z,56.85
2022-08-22T04:08:24.268Z,56.76
2022-08-22T04:08:46.819Z,56.82
2022-08-22T04:09:08.256Z,56.91
2022-08-22T04:09:29.303Z,56.99
2022-08-22T04:09:50.349Z,57.05
2022-08-22T04:10:12.091Z,57.05
2022-08-22T04:10:33.136Z,57.03
2022-08-22T04:10:54.190Z,57.03
2022-08-22T04:11:15.237Z,57.24
2022-08-22T04:11:36.288Z,57.22
2022-08-22T04:11:57.339Z,57.11
2022-08-22T04:12:18.384Z,56.97
2022-08-22T04:12:39.431Z,56.97
2022-08-22T04:13:00.480Z,56.99
2022-08-22T04:13:21.643Z,57.01
2022-08-22T04:13:45.842Z,56.94
2022-08-22T04:14:06.894Z,56.86
2022-08-22T04:14:27.940Z,56.84
2022-08-22T04:14:49.716Z,56.77
2022-08-22T04:15:10.772Z,56.76
2022-08-22T04:15:31.821Z,56.75
2022-08-22T04:15:52.869Z,56.76
2022-08-22T04:16:13.920Z,56.79
2022-08-22T04:16:34.963Z,56.83
2022-08-22T04:16:56.015Z,56.87
2022-08-22T04:17:17.068Z,56.93
2022-08-22T04:17:38.114Z,56.95
2022-08-22T04:17:59.387Z,56.94
2022-08-22T04:18:20.523Z,56.90
2022-08-22T04:18:44.390Z,56.90
2022-08-22T04:19:08.112Z,56.79
2022-08-22T04:19:29.173Z,56.80
2022-08-22T04:19:50.220Z,56.87
2022-08-22T04:20:11.270Z,56.85
2022-08-22T04:20:32.327Z,56.89
2022-08-22T04:20:53.378Z,56.94
2022-08-22T04:21:14.429Z,57.05
2022-08-22T04:21:35.478Z,57.18
2022-08-22T04:21:56.527Z,57.18
2022-08-22T04:22:17.579Z,57.21
2022-08-22T04:22:38.629Z,57.22
2022-08-22T04:22:59.692Z,57.17
2022-08-22T04:23:20.748Z,57.05
2022-08-22T04:23:41.823Z,57.02
2022-08-22T04:24:02.874Z,56.96
2022-08-22T04:24:23.928Z,57.04
2022-08-22T04:24:44.979Z,57.14
2022-08-22T04:25:11.937Z,57.28
2022-08-22T04:25:32.995Z,57.30
2022-08-22T04:25:54.043Z,57.34
2022-08-22T04:26:18.619Z,57.44
2022-08-22T04:26:39.663Z,57.52
2022-08-22T04:27:00.711Z,57.42
2022-08-22T04:27:21.768Z,57.38
2022-08-22T04:27:43.451Z,57.33
2022-08-22T04:28:04.503Z,57.28
2022-08-22T04:28:25.559Z,57.36
2022-08-22T04:28:46.725Z,57.46
2022-08-22T04:29:07.774Z,57.44
2022-08-22T04:29:28.833Z,57.30
2022-08-22T04:29:49.892Z,57.19
2022-08-22T04:30:10.952Z,57.25
2022-08-22T04:30:32.005Z,57.46
2022-08-22T04:30:53.054Z,57.57